Time;durP1;ratioP1;P1;durP2;ratioP2;P2;SDS_P1;SDS_P2;PMS_P1;PMS_P2;Temp;Humidity;BMP_temperature;BMP_pressure;BME280_temperature;BME280_humidity;BME280_pressure;Samples;Min_cycle;Max_cycle;Signal;HPM_P1;HPM_P2
2021/07/22 04:02:38;;;;;;;16.03;10.87;;;18.00;99.90;;;;;;4957979;29;20463;-62
2021/07/22 04:05:05;;;;;;;12.17;10.87;;;17.90;99.90;;;;;;4959204;29;20451;-63
2021/07/22 04:07:32;;;;;;;15.87;11.37;;;17.80;99.90;;;;;;4958961;29;20455;-63
2021/07/22 04:09:58;;;;;;;12.67;11.03;;;17.70;99.90;;;;;;4959072;29;20510;-63
2021/07/22 04:12:26;;;;;;;12.97;11.57;;;17.70;99.90;;;;;;4958852;29;20479;-63
2021/07/22 04:14:52;;;;;;;12.77;11.47;;;17.60;99.90;;;;;;4958981;29;20465;-63
2021/07/22 04:17:19;;;;;;;14.60;11.30;;;17.70;99.90;;;;;;4958953;29;20462;-62
2021/07/22 04:19:47;;;;;;;12.37;11.10;;;17.80;99.90;;;;;;4959115;29;20506;-63
2021/07/22 04:22:15;;;;;;;15.50;11.60;;;17.80;99.90;;;;;;4958987;29;20475;-63
2021/07/22 04:24:41;;;;;;;12.73;11.50;;;17.80;99.90;;;;;;4958735;29;20463;-63
2021/07/22 04:27:08;;;;;;;15.57;10.80;;;17.80;99.90;;;;;;4960868;29;20466;-62
2021/07/22 04:29:35;;;;;;;13.30;11.90;;;17.80;99.90;;;;;;4962712;29;20451;-63
2021/07/22 04:32:02;;;;;;;11.90;10.70;;;17.70;99.90;;;;;;4962396;29;20476;-63
2021/07/22 04:34:29;;;;;;;12.50;11.40;;;17.80;99.90;;;;;;4960262;29;20459;-65
2021/07/22 04:36:57;;;;;;;11.77;10.60;;;17.80;99.90;;;;;;4959549;29;20507;-63
2021/07/22 04:39:24;;;;;;;15.80;12.40;;;17.90;99.90;;;;;;4958641;29;20990;-63
2021/07/22 04:41:50;;;;;;;13.13;10.87;;;17.90;99.90;;;;;;4958590;29;20534;-63
2021/07/22 04:44:17;;;;;;;13.03;10.60;;;17.90;99.90;;;;;;4958520;29;20463;-64
2021/07/22 04:46:44;;;;;;;11.73;10.57;;;18.00;99.90;;;;;;4959329;29;20532;-63
2021/07/22 04:49:10;;;;;;;13.63;10.57;;;18.10;99.90;;;;;;4958336;29;20461;-63
2021/07/22 04:51:37;;;;;;;12.77;10.97;;;18.10;99.90;;;;;;4958572;29;20823;-63
2021/07/22 04:54:05;;;;;;;10.27;9.27;;;18.20;99.90;;;;;;4958508;29;20475;-63
2021/07/22 04:56:32;;;;;;;10.63;9.37;;;18.20;99.90;;;;;;4957481;28;20581;-63
2021/07/22 04:58:59;;;;;;;12.07;9.50;;;18.20;99.90;;;;;;4958288;29;20467;-65
2021/07/22 05:01:25;;;;;;;12.80;9.30;;;18.30;99.90;;;;;;4957856;29;20488;-63
2021/07/22 05:03:52;;;;;;;16.60;10.57;;;18.40;99.90;;;;;;4958296;29;20462;-64
2021/07/22 05:06:18;;;;;;;11.73;10.63;;;18.40;99.90;;;;;;4958108;29;20456;-63
2021/07/22 05:08:45;;;;;;;11.53;10.37;;;18.50;99.90;;;;;;4958302;29;20466;-64
2021/07/22 05:11:13;;;;;;;11.43;10.27;;;18.60;99.90;;;;;;4958141;29;20480;-63
2021/07/22 05:13:40;;;;;;;11.27;10.27;;;18.70;99.90;;;;;;4958185;29;20534;-63
2021/07/22 05:16:07;;;;;;;10.37;9.27;;;18.60;99.90;;;;;;4958194;29;20543;-63
2021/07/22 05:18:34;;;;;;;10.80;9.90;;;18.60;99.90;;;;;;4958041;29;20482;-63
2021/07/22 05:21:04;;;;;;;10.87;9.73;;;18.60;99.90;;;;;;4960577;29;20970;-63
2021/07/22 05:23:30;;;;;;;12.03;10.90;;;18.70;99.90;;;;;;4961253;29;20483;-63
2021/07/22 05:25:57;;;;;;;11.10;10.10;;;18.70;99.90;;;;;;4958865;29;20452;-63
2021/07/22 05:28:25;;;;;;;10.90;9.67;;;18.70;99.90;;;;;;4957364;29;20939;-64
2021/07/22 05:30:52;;;;;;;14.83;11.10;;;18.70;99.90;;;;;;4957263;29;20986;-63
2021/07/22 05:33:18;;;;;;;12.90;10.03;;;18.70;99.90;;;;;;4957252;29;20974;-63
2021/07/22 05:35:45;;;;;;;14.80;10.40;;;18.80;99.90;;;;;;4958198;29;20444;-63
2021/07/22 05:38:12;;;;;;;10.77;9.47;;;18.90;99.90;;;;;;4957491;29;20455;-63
2021/07/22 05:40:38;;;;;;;11.83;10.77;;;19.10;99.90;;;;;;4957412;29;20492;-63
2021/07/22 05:43:05;;;;;;;10.23;9.33;;;19.20;99.90;;;;;;4957353;29;20444;-63
2021/07/22 05:45:34;;;;;;;10.63;9.60;;;19.40;99.90;;;;;;4957540;29;20456;-63
2021/07/22 05:48:01;;;;;;;11.20;10.10;;;19.50;99.90;;;;;;4957340;29;20463;-63
2021/07/22 05:50:28;;;;;;;14.63;9.87;;;19.70;99.90;;;;;;4957397;29;20452;-62
2021/07/22 05:52:54;;;;;;;13.00;10.50;;;19.70;99.90;;;;;;4957326;29;20518;-62
2021/07/22 05:55:21;;;;;;;10.17;9.10;;;19.80;99.90;;;;;;4957355;29;20459;-64
2021/07/22 05:57:48;;;;;;;11.63;10.43;;;19.90;99.90;;;;;;4957315;29;20455;-63
2021/07/22 06:00:15;;;;;;;11.10;10.07;;;19.90;99.90;;;;;;4956986;29;20480;-62
2021/07/22 06:02:43;;;;;;;12.07;10.87;;;20.00;99.90;;;;;;4956924;28;20783;-62
2021/07/22 06:05:10;;;;;;;11.10;10.10;;;20.20;99.90;;;;;;4965087;29;20836;-63
2021/07/22 06:07:37;;;;;;;12.20;10.57;;;20.30;99.90;;;;;;4968510;28;20460;-63
2021/07/22 06:10:05;;;;;;;11.10;10.10;;;20.40;99.90;;;;;;4957127;29;20965;-64
2021/07/22 06:12:31;;;;;;;11.63;10.63;;;20.40;99.90;;;;;;4956845;29;20526;-63
2021/07/22 06:14:58;;;;;;;12.50;9.90;;;20.40;99.90;;;;;;4956865;29;20466;-63
2021/07/22 06:17:25;;;;;;;12.23;9.67;;;20.70;99.90;;;;;;4956739;29;20470;-63
2021/07/22 06:19:53;;;;;;;11.80;10.57;;;20.90;99.90;;;;;;4956769;29;20484;-62
2021/07/22 06:22:20;;;;;;;11.70;9.80;;;21.00;99.90;;;;;;4956406;29;20927;-63
2021/07/22 06:24:47;;;;;;;14.57;9.93;;;21.30;99.90;;;;;;4956629;29;20510;-61
2021/07/22 06:27:14;;;;;;;10.03;9.10;;;21.10;99.90;;;;;;4956472;29;20969;-60
2021/07/22 06:29:41;;;;;;;11.30;10.20;;;20.70;99.90;;;;;;4956398;29;20807;-62
2021/07/22 06:32:08;;;;;;;11.27;10.17;;;21.00;99.90;;;;;;4956374;29;20551;-62
2021/07/22 06:34:35;;;;;;;11.53;10.03;;;21.30;99.90;;;;;;4956666;29;20447;-63
2021/07/22 06:37:03;;;;;;;11.20;10.20;;;21.60;99.90;;;;;;4957021;29;20459;-63
2021/07/22 06:39:32;;;;;;;11.93;10.83;;;21.80;99.90;;;;;;4956511;29;20482;-62
2021/07/22 06:41:59;;;;;;;10.93;9.93;;;21.90;99.90;;;;;;4956332;29;20479;-63
2021/07/22 06:44:26;;;;;;;10.80;9.80;;;22.10;99.90;;;;;;4956057;29;20455;-62
2021/07/22 06:46:53;;;;;;;11.50;10.40;;;22.30;99.90;;;;;;4956325;29;20451;-62
2021/07/22 06:49:19;;;;;;;10.73;9.63;;;22.60;99.90;;;;;;4956220;29;20467;-62
2021/07/22 06:51:48;;;;;;;13.40;10.87;;;22.90;99.90;;;;;;4956254;29;20878;-62
2021/07/22 06:54:16;;;;;;;12.63;9.13;;;23.20;99.90;;;;;;4956534;29;20467;-62
2021/07/22 06:56:42;;;;;;;10.23;9.23;;;23.80;99.90;;;;;;4956908;29;20459;-63
2021/07/22 06:59:09;;;;;;;8.90;8.00;;;24.30;99.90;;;;;;4956543;29;20444;-62
2021/07/22 07:01:36;;;;;;;13.80;8.23;;;25.10;99.90;;;;;;4955584;29;20542;-62
2021/07/22 07:04:03;;;;;;;10.10;9.10;;;25.80;99.90;;;;;;4956034;29;20451;-63
2021/07/22 07:06:30;;;;;;;8.93;8.13;;;26.40;99.90;;;;;;4956045;29;20461;-63
2021/07/22 07:08:57;;;;;;;8.68;7.40;;;26.60;99.90;;;;;;4955455;29;20478;-63
2021/07/22 07:11:25;;;;;;;9.87;8.87;;;26.50;99.90;;;;;;4955902;29;20220;-63
2021/07/22 07:13:51;;;;;;;10.57;9.13;;;26.30;99.90;;;;;;4955897;29;20459;-63
2021/07/22 07:16:19;;;;;;;10.17;9.37;;;26.40;99.90;;;;;;4955994;29;20455;-63
2021/07/22 07:18:46;;;;;;;9.37;8.53;;;26.20;99.90;;;;;;4955328;28;20542;-63
2021/07/22 07:21:12;;;;;;;9.57;8.77;;;26.70;99.90;;;;;;4955638;29;20487;-62
2021/07/22 07:23:39;;;;;;;8.70;7.90;;;27.40;99.90;;;;;;4955905;29;20456;-62
2021/07/22 07:26:09;;;;;;;10.57;9.70;;;27.30;99.90;;;;;;4955898;29;20478;-62
2021/07/22 07:28:37;;;;;;;11.03;9.67;;;27.70;99.90;;;;;;4956034;28;20861;-62
2021/07/22 07:31:04;;;;;;;10.30;8.93;;;28.00;99.90;;;;;;4955903;29;20479;-62
2021/07/22 07:33:31;;;;;;;10.40;9.40;;;27.80;98.70;;;;;;4955855;29;20443;-62
2021/07/22 07:35:58;;;;;;;9.10;8.30;;;27.90;99.30;;;;;;4955802;29;20459;-62
2021/07/22 07:38:25;;;;;;;8.87;7.97;;;27.80;99.50;;;;;;4955889;29;20464;-62
2021/07/22 07:40:52;;;;;;;9.20;8.33;;;28.30;98.70;;;;;;4955689;29;20535;-62
2021/07/22 07:43:20;;;;;;;14.33;8.93;;;28.20;97.90;;;;;;4955620;29;20546;-63
2021/07/22 07:45:48;;;;;;;11.17;9.90;;;29.30;97.70;;;;;;4955801;29;20459;-62
2021/07/22 07:48:15;;;;;;;10.07;9.17;;;29.40;94.70;;;;;;4955952;29;20455;-63
2021/07/22 07:50:42;;;;;;;11.80;9.50;;;29.70;95.50;;;;;;4956511;29;20833;-63
2021/07/22 07:53:14;;;;;;;10.17;8.80;;;29.20;94.30;;;;;;4956720;29;20443;-62
2021/07/22 07:55:41;;;;;;;9.70;8.77;;;29.20;92.90;;;;;;4971742;29;20452;-63
2021/07/22 07:58:08;;;;;;;12.33;8.60;;;29.10;93.70;;;;;;4956714;29;20455;-62
2021/07/22 08:00:35;;;;;;;10.97;8.50;;;29.80;94.30;;;;;;4955095;29;20491;-62
2021/07/22 08:03:04;;;;;;;9.10;8.40;;;30.10;92.40;;;;;;4955683;29;20916;-62
2021/07/22 08:05:30;;;;;;;9.10;8.30;;;30.50;91.50;;;;;;4955595;28;20460;-62
2021/07/22 08:07:57;;;;;;;13.33;8.93;;;30.70;90.90;;;;;;4955509;29;20451;-62
2021/07/22 08:10:24;;;;;;;8.57;7.80;;;30.80;90.20;;;;;;4955468;29;20463;-62
2021/07/22 08:12:51;;;;;;;9.67;8.77;;;30.30;89.70;;;;;;4955508;29;20459;-63
2021/07/22 08:15:18;;;;;;;9.00;8.10;;;30.50;90.10;;;;;;4955164;29;20907;-62
2021/07/22 08:17:44;;;;;;;10.20;8.60;;;30.80;90.60;;;;;;4955479;29;20459;-62
2021/07/22 08:20:13;;;;;;;9.03;8.33;;;30.40;85.80;;;;;;4955761;29;20514;-62
2021/07/22 08:22:40;;;;;;;8.20;7.50;;;30.70;86.20;;;;;;4955290;29;20462;-62
2021/07/22 08:25:09;;;;;;;8.47;7.80;;;31.00;86.40;;;;;;4955147;29;20460;-62
2021/07/22 08:27:36;;;;;;;7.53;7.00;;;31.50;80.50;;;;;;4955722;29;20465;-62
2021/07/22 08:30:03;;;;;;;9.10;7.50;;;31.40;81.30;;;;;;4957017;28;20483;-63
2021/07/22 08:32:30;;;;;;;7.57;6.90;;;31.20;79.60;;;;;;4958910;29;20471;-62
2021/07/22 08:34:56;;;;;;;7.47;6.80;;;31.90;78.20;;;;;;4958784;29;20466;-61
2021/07/22 08:37:24;;;;;;;7.90;7.17;;;32.60;77.50;;;;;;4960730;29;20816;-62
2021/07/22 08:39:53;;;;;;;8.90;7.97;;;33.20;76.90;;;;;;4959442;29;20455;-62
2021/07/22 08:42:25;;;;;;;11.90;7.93;;;33.20;72.90;;;;;;4958487;29;20511;-62
2021/07/22 08:44:52;;;;;;;9.10;8.00;;;32.90;72.20;;;;;;4958773;29;20447;-62
2021/07/22 08:47:19;;;;;;;8.80;8.10;;;33.00;71.60;;;;;;4958759;29;20455;-61
2021/07/22 08:49:46;;;;;;;9.20;8.30;;;33.00;71.50;;;;;;4958593;29;20455;-61
2021/07/22 08:52:13;;;;;;;8.20;7.50;;;32.80;73.70;;;;;;4958606;29;20484;-61
2021/07/22 08:54:41;;;;;;;9.63;7.63;;;32.60;73.90;;;;;;4958540;29;20444;-62
2021/07/22 08:57:10;;;;;;;8.33;7.63;;;32.40;74.60;;;;;;4958117;29;20464;-61
2021/07/22 08:59:37;;;;;;;8.33;7.73;;;32.60;73.30;;;;;;4958517;29;20456;-62
2021/07/22 09:02:05;;;;;;;9.73;7.80;;;32.90;75.30;;;;;;4957896;29;20483;-62
2021/07/22 09:04:49;;;;;;;10.20;7.67;;;33.70;69.60;;;;;;4959003;29;20461;-62
2021/07/22 09:07:17;;;;;;;8.30;7.60;;;33.30;68.60;;;;;;4958545;28;20478;-61
2021/07/22 09:09:45;;;;;;;9.63;8.27;;;33.80;68.00;;;;;;4958770;29;20483;-61
2021/07/22 09:12:11;;;;;;;7.47;6.83;;;33.70;68.30;;;;;;4958352;29;20467;-61
2021/07/22 09:14:38;;;;;;;9.97;6.90;;;33.40;72.20;;;;;;4958441;29;20510;-62
2021/07/22 09:17:05;;;;;;;8.60;7.70;;;33.70;72.60;;;;;;4958671;29;20459;-62
2021/07/22 09:19:34;;;;;;;9.17;6.80;;;33.80;66.90;;;;;;4957920;29;20794;-62
2021/07/22 09:22:02;;;;;;;6.80;6.20;;;33.80;67.20;;;;;;4958091;29;20478;-61
2021/07/22 09:24:28;;;;;;;10.30;8.27;;;33.70;70.00;;;;;;4957826;29;20463;-62
2021/07/22 09:26:57;;;;;;;7.60;6.93;;;33.90;68.20;;;;;;4958172;29;20455;-61
2021/07/22 09:29:24;;;;;;;7.80;7.20;;;34.40;63.30;;;;;;4957974;29;20465;-62
2021/07/22 09:31:51;;;;;;;7.03;6.33;;;34.30;65.40;;;;;;4957920;29;20599;-61
2021/07/22 09:34:25;;;;;;;8.30;7.57;;;34.80;68.20;;;;;;4957791;29;20463;-61
2021/07/22 09:36:52;;;;;;;7.07;6.47;;;35.30;62.10;;;;;;4957340;29;20449;-62
2021/07/22 09:39:22;;;;;;;8.10;7.30;;;35.00;61.60;;;;;;4958176;29;20463;-62
2021/07/22 09:42:00;;;;;;;9.60;6.83;;;35.00;61.60;;;;;;4959251;28;20875;-62
2021/07/22 09:44:32;;;;;;;8.67;6.30;;;34.60;62.50;;;;;;4971305;29;20465;-62
2021/07/22 09:46:59;;;;;;;10.63;6.67;;;34.70;62.60;;;;;;4957710;29;20459;-62
2021/07/22 09:49:37;;;;;;;8.53;6.60;;;34.70;63.60;;;;;;4957369;29;20462;-62
2021/07/22 09:52:10;;;;;;;7.70;7.00;;;35.00;62.60;;;;;;4957559;29;20592;-62
2021/07/22 09:54:38;;;;;;;10.40;7.17;;;35.40;60.50;;;;;;4957323;29;20444;-62
2021/07/22 09:57:15;;;;;;;10.83;9.47;;;35.50;58.60;;;;;;4957064;29;20454;-62
2021/07/22 09:59:44;;;;;;;7.07;6.37;;;35.60;58.70;;;;;;4957279;29;20470;-62
2021/07/22 10:02:18;;;;;;;7.10;6.60;;;35.50;61.00;;;;;;4956777;29;20525;-62
2021/07/22 10:04:51;;;;;;;7.43;6.30;;;35.80;59.00;;;;;;4957416;28;20472;-61
2021/07/22 10:07:21;;;;;;;7.13;6.47;;;36.30;56.90;;;;;;4957514;29;20451;-62
2021/07/22 10:09:51;;;;;;;7.83;7.23;;;36.40;56.50;;;;;;4957018;28;20475;-62
2021/07/22 10:12:20;;;;;;;6.90;6.30;;;36.20;57.90;;;;;;4956971;29;20475;-62
2021/07/22 10:14:51;;;;;;;9.63;7.53;;;36.40;57.50;;;;;;4956570;29;20859;-62
2021/07/22 10:17:18;;;;;;;8.60;6.80;;;36.40;60.60;;;;;;4956950;29;20806;-63
2021/07/22 10:19:45;;;;;;;14.23;7.10;;;36.00;57.80;;;;;;4956960;28;20540;-63
2021/07/22 10:22:12;;;;;;;8.70;7.33;;;36.50;55.30;;;;;;4956446;29;20818;-62
2021/07/22 10:24:40;;;;;;;11.20;6.87;;;36.00;57.30;;;;;;4956810;29;20455;-63
2021/07/22 10:27:07;;;;;;;6.77;6.07;;;35.90;55.20;;;;;;4956751;29;20455;-63
2021/07/22 10:29:35;;;;;;;7.93;7.20;;;36.10;57.20;;;;;;4956823;29;20451;-63
2021/07/22 10:32:03;;;;;;;8.03;6.33;;;36.30;57.30;;;;;;4957363;28;20526;-63
2021/07/22 10:34:34;;;;;;;7.53;6.80;;;36.50;56.70;;;;;;4956455;29;20463;-63
2021/07/22 10:37:01;;;;;;;9.57;7.20;;;36.00;56.60;;;;;;4956533;29;20443;-62
2021/07/22 10:39:58;;;;;;;7.83;7.33;;;35.20;56.40;;;;;;4956067;29;21010;-62
2021/07/22 10:42:42;;;;;;;7.70;7.10;;;34.90;57.70;;;;;;4956241;29;20493;-63
2021/07/22 10:45:51;;;;;;;7.77;6.80;;;35.20;61.10;;;;;;4956331;29;20463;-63
2021/07/22 10:48:26;;;;;;;17.60;7.10;;;35.10;59.00;;;;;;4936612;28;20820;-62
2021/07/22 10:51:14;;;;;;;7.27;6.50;;;35.20;58.00;;;;;;4955905;28;20889;-62
2021/07/22 10:53:49;;;;;;;6.50;5.90;;;35.60;59.60;;;;;;4955304;28;20446;-63
2021/07/22 10:56:46;;;;;;;8.00;7.20;;;36.00;59.20;;;;;;4956348;29;20443;-62
2021/07/22 10:59:12;;;;;;;7.90;6.97;;;35.90;57.70;;;;;;4956276;29;20454;-63
2021/07/22 11:01:58;;;;;;;8.73;8.13;;;35.90;56.00;;;;;;4955553;29;20545;-63
2021/07/22 11:04:42;;;;;;;8.20;7.40;;;35.20;58.40;;;;;;4956150;28;20450;-62
2021/07/22 11:07:20;;;;;;;8.40;7.70;;;34.40;59.20;;;;;;4956216;29;20455;-63
2021/07/22 11:09:49;;;;;;;9.90;7.43;;;34.40;59.40;;;;;;4956137;29;20439;-63
2021/07/22 11:12:39;;;;;;;7.40;6.67;;;34.10;60.50;;;;;;4955684;29;20560;-63
2021/07/22 11:15:07;;;;;;;8.23;7.37;;;34.30;59.70;;;;;;4955898;29;20446;-63
2021/07/22 11:17:36;;;;;;;11.90;6.53;;;34.90;61.70;;;;;;4955790;29;20458;-62
2021/07/22 11:20:33;;;;;;;8.00;7.20;;;35.30;58.50;;;;;;4956183;29;20443;-63
2021/07/22 11:23:12;;;;;;;7.87;6.93;;;35.10;58.90;;;;;;4955433;28;20840;-63
2021/07/22 11:25:47;;;;;;;9.13;7.20;;;35.00;60.10;;;;;;4955568;29;21023;-63
2021/07/22 11:28:15;;;;;;;8.67;7.90;;;35.00;59.60;;;;;;4955739;29;20442;-62
2021/07/22 11:30:59;;;;;;;11.43;7.83;;;34.60;60.10;;;;;;4955669;28;20910;-62
2021/07/22 11:33:30;;;;;;;8.20;7.60;;;34.40;57.70;;;;;;4956280;29;20450;-62
2021/07/22 11:35:58;;;;;;;11.73;7.93;;;34.40;59.80;;;;;;4957290;28;20471;-63
2021/07/22 11:38:25;;;;;;;9.03;8.23;;;34.50;59.50;;;;;;4957783;29;20466;-63
2021/07/22 11:40:52;;;;;;;9.80;8.37;;;34.20;61.00;;;;;;4955921;29;20862;-63
2021/07/22 11:43:41;;;;;;;10.70;7.97;;;33.60;61.60;;;;;;4955664;29;20486;-63
2021/07/22 11:46:10;;;;;;;11.47;8.97;;;33.00;60.60;;;;;;4952992;28;20462;-62
2021/07/22 11:48:39;;;;;;;8.20;7.60;;;32.90;60.80;;;;;;4955287;29;20942;-62
2021/07/22 11:51:08;;;;;;;14.50;8.20;;;32.80;65.00;;;;;;4955284;28;20534;-62
2021/07/22 11:53:35;;;;;;;8.90;8.10;;;32.70;62.60;;;;;;4955584;29;20446;-62
2021/07/22 11:56:11;;;;;;;9.23;7.83;;;32.90;63.50;;;;;;4955631;29;20463;-63
2021/07/22 11:58:38;;;;;;;8.67;7.87;;;33.10;66.00;;;;;;4955616;29;20443;-63
2021/07/22 12:01:05;;;;;;;9.10;8.40;;;32.60;64.60;;;;;;4955654;29;20494;-63
2021/07/22 12:03:32;;;;;;;8.83;8.13;;;32.90;63.90;;;;;;4957397;29;20475;-63
2021/07/22 12:06:00;;;;;;;8.17;7.40;;;32.40;60.70;;;;;;4959224;28;20462;-62
2021/07/22 12:08:27;;;;;;;9.80;8.67;;;32.40;63.60;;;;;;4959156;29;20829;-62
2021/07/22 12:10:59;;;;;;;9.20;8.30;;;32.40;65.10;;;;;;4959474;29;20489;-63
2021/07/22 12:13:25;;;;;;;9.87;8.90;;;32.10;65.10;;;;;;4959258;28;20463;-62
2021/07/22 12:15:52;;;;;;;9.50;8.60;;;32.00;64.30;;;;;;4959253;29;20459;-62
2021/07/22 12:18:21;;;;;;;9.60;8.50;;;31.70;64.90;;;;;;4959107;28;20532;-62
2021/07/22 12:20:48;;;;;;;10.03;9.13;;;31.70;64.30;;;;;;4958616;28;20510;-62
2021/07/22 12:23:34;;;;;;;9.67;8.83;;;31.90;61.80;;;;;;4958888;29;20814;-62
2021/07/22 12:26:02;;;;;;;12.13;8.10;;;31.70;65.60;;;;;;4959310;29;20478;-63
2021/07/22 12:28:30;;;;;;;9.73;8.60;;;31.90;67.20;;;;;;4960477;29;20502;-63
2021/07/22 12:31:14;;;;;;;8.50;7.80;;;31.60;65.50;;;;;;4960641;29;20475;-63
2021/07/22 12:33:40;;;;;;;9.07;8.27;;;32.00;66.70;;;;;;4959948;29;20486;-62
2021/07/22 12:36:19;;;;;;;9.73;8.73;;;31.90;65.70;;;;;;4962014;29;20798;-62
2021/07/22 12:38:47;;;;;;;9.20;8.47;;;31.30;66.80;;;;;;4961533;28;20443;-63
2021/07/22 12:41:17;;;;;;;9.17;8.37;;;31.60;68.20;;;;;;4959082;29;20482;-62
2021/07/22 12:43:46;;;;;;;8.63;7.73;;;31.80;68.60;;;;;;4959355;29;20479;-63
2021/07/22 12:46:18;;;;;;;8.93;8.03;;;32.10;69.40;;;;;;4958788;29;20456;-63
2021/07/22 12:48:45;;;;;;;7.93;7.20;;;32.20;65.40;;;;;;4958752;29;20826;-63
2021/07/22 12:51:13;;;;;;;9.10;7.97;;;32.10;67.60;;;;;;4958803;29;20479;-62
2021/07/22 12:53:41;;;;;;;11.13;7.73;;;32.10;65.20;;;;;;4958593;29;20447;-63
2021/07/22 12:56:10;;;;;;;9.13;8.23;;;31.80;65.50;;;;;;4958399;29;20452;-63
2021/07/22 12:58:41;;;;;;;8.33;7.53;;;32.00;66.10;;;;;;4958419;29;20455;-63
2021/07/22 13:01:11;;;;;;;9.80;7.50;;;31.70;67.80;;;;;;4958058;29;20494;-63
2021/07/22 13:03:40;;;;;;;8.60;7.40;;;31.90;68.00;;;;;;4958254;29;20845;-63
2021/07/22 13:06:07;;;;;;;12.00;8.03;;;32.00;67.10;;;;;;4958148;29;20456;-63
2021/07/22 13:08:34;;;;;;;8.20;7.60;;;32.00;66.50;;;;;;4958832;29;20460;-64
2021/07/22 13:11:02;;;;;;;12.20;9.80;;;32.10;68.50;;;;;;4961641;29;20475;-63
2021/07/22 13:13:30;;;;;;;10.97;8.70;;;32.00;63.80;;;;;;4960027;29;20943;-63
2021/07/22 13:15:57;;;;;;;8.87;8.10;;;32.10;67.90;;;;;;4957702;28;20459;-62
2021/07/22 13:18:24;;;;;;;9.07;8.37;;;32.00;66.60;;;;;;4957539;29;20986;-63
2021/07/22 13:20:52;;;;;;;9.83;8.83;;;32.00;66.20;;;;;;4957527;29;20982;-63
2021/07/22 13:23:19;;;;;;;9.37;8.57;;;32.00;66.00;;;;;;4957848;29;20578;-63
2021/07/22 13:25:46;;;;;;;9.00;8.30;;;32.00;65.90;;;;;;4957766;29;20459;-63
2021/07/22 13:28:13;;;;;;;10.13;8.97;;;31.80;64.50;;;;;;4957622;28;20491;-63
2021/07/22 13:30:41;;;;;;;9.17;8.33;;;31.90;66.90;;;;;;4957225;29;20975;-63
2021/07/22 13:33:09;;;;;;;12.93;9.10;;;31.90;64.10;;;;;;4957544;29;20452;-63
2021/07/22 13:35:35;;;;;;;10.20;8.80;;;32.00;64.20;;;;;;4958106;28;20498;-63
2021/07/22 13:38:04;;;;;;;9.00;8.30;;;31.90;62.50;;;;;;4957610;29;20470;-63
2021/07/22 13:40:32;;;;;;;9.80;8.87;;;31.90;65.90;;;;;;4957494;29;20456;-63
2021/07/22 13:43:01;;;;;;;9.40;8.50;;;31.90;64.40;;;;;;4957360;29;20822;-63
2021/07/22 13:45:28;;;;;;;11.37;8.93;;;31.90;65.00;;;;;;4957296;29;20465;-63
2021/07/22 13:47:56;;;;;;;9.37;8.57;;;31.70;63.00;;;;;;4957458;28;20484;-63
2021/07/22 13:50:23;;;;;;;10.70;9.70;;;31.80;67.10;;;;;;4957493;29;20459;-63
2021/07/22 13:52:50;;;;;;;9.80;8.90;;;31.80;64.40;;;;;;4957130;28;20455;-62
2021/07/22 13:55:17;;;;;;;8.93;8.23;;;31.90;67.20;;;;;;4965058;29;20468;-63
2021/07/22 13:57:43;;;;;;;10.40;8.50;;;31.90;66.10;;;;;;4968857;29;20935;-64
2021/07/22 14:00:11;;;;;;;9.80;9.00;;;32.00;65.40;;;;;;4957593;29;20447;-64
2021/07/22 14:02:38;;;;;;;9.60;8.70;;;32.00;62.10;;;;;;4956900;29;20490;-63
2021/07/22 14:05:07;;;;;;;9.97;9.17;;;32.10;64.00;;;;;;4956910;29;20494;-63
2021/07/22 14:07:33;;;;;;;9.97;8.90;;;31.80;65.40;;;;;;4956619;29;20896;-63
2021/07/22 14:10:00;;;;;;;9.13;8.30;;;32.00;66.90;;;;;;4956999;29;20459;-62
2021/07/22 14:12:27;;;;;;;10.83;8.30;;;32.10;65.20;;;;;;4956428;29;20975;-63
2021/07/22 14:14:54;;;;;;;8.50;7.90;;;32.00;65.50;;;;;;4956906;29;20538;-63
2021/07/22 14:17:20;;;;;;;12.03;8.47;;;32.00;66.90;;;;;;4956749;29;20459;-64
2021/07/22 14:19:47;;;;;;;10.10;9.20;;;32.20;62.90;;;;;;4956772;29;20451;-63
2021/07/22 14:22:15;;;;;;;8.23;7.63;;;32.30;61.90;;;;;;4956291;29;20983;-63
2021/07/22 14:24:42;;;;;;;9.53;8.73;;;32.50;62.90;;;;;;4956676;29;20460;-64
2021/07/22 14:27:08;;;;;;;9.90;9.10;;;32.50;62.70;;;;;;4956380;29;20903;-63
2021/07/22 14:29:35;;;;;;;11.33;9.27;;;32.20;62.90;;;;;;4955486;28;20459;-63
2021/07/22 14:32:02;;;;;;;9.50;8.70;;;32.30;61.30;;;;;;4956196;29;20817;-64
2021/07/22 14:34:29;;;;;;;9.23;8.43;;;32.30;61.20;;;;;;4956437;29;20463;-63
2021/07/22 14:36:57;;;;;;;8.70;8.00;;;32.10;63.50;;;;;;4956553;29;20466;-63
2021/07/22 14:39:25;;;;;;;7.97;7.47;;;32.10;64.30;;;;;;4956592;28;20480;-63
2021/07/22 14:41:51;;;;;;;9.67;8.97;;;31.90;62.80;;;;;;4956417;29;20486;-63
2021/07/22 14:44:18;;;;;;;8.57;7.97;;;31.90;64.00;;;;;;4956794;29;20478;-63
2021/07/22 14:46:45;;;;;;;8.90;8.10;;;31.70;63.20;;;;;;4956791;29;20463;-64
2021/07/22 14:49:12;;;;;;;11.03;8.40;;;31.60;64.40;;;;;;4956431;29;20829;-63
2021/07/22 14:51:40;;;;;;;8.70;8.10;;;31.60;63.40;;;;;;4955884;29;20510;-64
2021/07/22 14:54:07;;;;;;;9.40;8.50;;;31.30;65.50;;;;;;4956234;29;20456;-63
2021/07/22 14:56:35;;;;;;;9.37;8.43;;;31.50;62.70;;;;;;4955801;29;20978;-64
2021/07/22 14:59:01;;;;;;;9.17;8.37;;;31.60;64.80;;;;;;4956161;29;20489;-63
2021/07/22 15:01:30;;;;;;;9.63;8.80;;;31.50;64.10;;;;;;4956076;29;20494;-63
2021/07/22 15:03:56;;;;;;;8.90;8.10;;;31.50;64.50;;;;;;4956655;29;20480;-63
2021/07/22 15:06:23;;;;;;;9.23;8.37;;;31.50;63.30;;;;;;4956063;29;20463;-63
2021/07/22 15:08:50;;;;;;;10.63;9.67;;;31.50;64.70;;;;;;4956060;29;20459;-63
2021/07/22 15:11:16;;;;;;;9.43;8.53;;;31.50;65.60;;;;;;4955722;29;20479;-63
2021/07/22 15:13:47;;;;;;;9.20;8.40;;;31.40;65.60;;;;;;4956085;29;20447;-63
2021/07/22 15:16:14;;;;;;;12.20;8.90;;;31.20;66.50;;;;;;4955796;29;20445;-63
2021/07/22 15:18:40;;;;;;;9.90;9.10;;;31.30;69.30;;;;;;4955651;29;20466;-63
2021/07/22 15:21:07;;;;;;;9.57;8.70;;;31.30;67.20;;;;;;4955918;29;20560;-63
2021/07/22 15:23:34;;;;;;;8.80;7.90;;;31.30;65.30;;;;;;4955907;29;20506;-63
2021/07/22 15:26:01;;;;;;;9.00;8.10;;;31.30;65.40;;;;;;4955994;29;20457;-64
2021/07/22 15:28:27;;;;;;;9.63;8.43;;;31.20;67.90;;;;;;4956279;29;20452;-63
2021/07/22 15:30:56;;;;;;;9.10;8.27;;;31.20;66.30;;;;;;4955864;29;20486;-64
2021/07/22 15:33:22;;;;;;;9.97;8.87;;;31.10;68.40;;;;;;4955721;29;20460;-62
2021/07/22 15:35:49;;;;;;;11.03;9.93;;;31.10;65.90;;;;;;4955935;29;20462;-62
2021/07/22 15:38:16;;;;;;;12.53;9.10;;;31.00;65.40;;;;;;4955518;29;20460;-63
2021/07/22 15:40:44;;;;;;;12.43;9.03;;;30.70;65.70;;;;;;4958386;28;20475;-63
2021/07/22 15:43:12;;;;;;;9.03;8.23;;;30.60;65.60;;;;;;4959719;29;20482;-64
2021/07/22 15:45:39;;;;;;;9.57;8.17;;;30.60;67.90;;;;;;4959636;29;20462;-62
2021/07/22 15:48:07;;;;;;;9.63;8.60;;;30.50;66.50;;;;;;4959713;28;20460;-64
2021/07/22 15:50:34;;;;;;;9.80;9.00;;;30.50;66.30;;;;;;4959570;29;20456;-62
2021/07/22 15:53:01;;;;;;;10.03;8.67;;;30.50;67.40;;;;;;4972166;29;20448;-63
2021/07/22 15:55:28;;;;;;;9.50;8.80;;;30.40;66.60;;;;;;4968758;29;20911;-63
2021/07/22 15:57:55;;;;;;;9.47;8.67;;;30.20;67.90;;;;;;4960710;29;20485;-63
2021/07/22 16:00:22;;;;;;;12.60;8.70;;;30.20;70.00;;;;;;4959884;29;20439;-62
2021/07/22 16:02:48;;;;;;;11.90;8.60;;;30.00;68.60;;;;;;4959291;28;20800;-64
2021/07/22 16:05:17;;;;;;;9.90;9.00;;;29.70;68.30;;;;;;4959576;29;20459;-63
2021/07/22 16:07:43;;;;;;;10.30;8.67;;;29.60;69.80;;;;;;4959495;28;20455;-64
2021/07/22 16:10:11;;;;;;;9.63;8.63;;;29.60;69.00;;;;;;4959175;29;20455;-63
2021/07/22 16:12:37;;;;;;;8.90;8.20;;;29.50;69.80;;;;;;4958794;29;20994;-63
2021/07/22 16:15:05;;;;;;;9.70;8.73;;;29.60;69.30;;;;;;4959024;29;20860;-63
2021/07/22 16:17:32;;;;;;;10.17;9.23;;;29.70;71.50;;;;;;4960320;28;20455;-63
2021/07/22 16:19:59;;;;;;;10.93;9.17;;;29.70;69.60;;;;;;4959872;29;20482;-63
2021/07/22 16:22:27;;;;;;;12.67;9.17;;;29.50;71.60;;;;;;4958814;29;20836;-64
2021/07/22 16:24:53;;;;;;;9.63;8.87;;;29.40;69.50;;;;;;4958705;29;20479;-63
2021/07/22 16:27:20;;;;;;;10.53;8.93;;;29.30;70.60;;;;;;4958800;29;20456;-62
2021/07/22 16:29:47;;;;;;;10.77;9.77;;;29.30;71.40;;;;;;4958743;29;20460;-63
2021/07/22 16:32:13;;;;;;;9.63;8.70;;;29.10;71.40;;;;;;4958597;29;20479;-63
2021/07/22 16:34:40;;;;;;;10.97;9.97;;;29.20;71.70;;;;;;4959160;29;20452;-63
2021/07/22 16:37:07;;;;;;;9.20;8.30;;;29.10;70.70;;;;;;4958641;28;20455;-63
2021/07/22 16:39:35;;;;;;;10.00;9.23;;;29.10;72.80;;;;;;4958271;29;20510;-64
2021/07/22 16:42:03;;;;;;;10.50;9.50;;;29.10;73.30;;;;;;4958930;29;20483;-64
2021/07/22 16:44:30;;;;;;;8.67;7.87;;;29.10;73.10;;;;;;4958793;29;20514;-64
2021/07/22 16:46:56;;;;;;;10.00;9.10;;;29.00;72.20;;;;;;4958650;29;20463;-63
2021/07/22 16:49:23;;;;;;;10.20;8.80;;;29.00;71.80;;;;;;4958742;29;20459;-63